Aviation Digital Data Service (ADDS)

Output produced by TAFs form (0232 UTC 23 January 2017)
found at http://aviationweather.gov/adds/tafs/
 
KMTJ 222320Z 2300/2324 00000KT P6SM OVC100 
     FM230700 17005KT P6SM VCSH OVC050 
     FM231000 18005KT P6SM -SHSN OVC045 
     FM231500 18015G25KT P6SM -SHSN BKN040 
     FM231800 22020G28KT 3SM -SN BR OVC020